• Join FlightAware (Why Join?)
  • Login
  • US Flag 
02:41AM EST


 

Airport Tracker/Info


-or-


 

Live Flight TrackerFlight Track Log ✈ A6-EWE ✈ 15-Apr-2013 ✈ OMDB / DXB - SBGL / GIG

Flight Track Log - Related Links

Times and Time Zones

All times are in EDT time to prevent confusion due to time zone crossing. See the A6-EWE flight status page for this flight to view local times or setup timezone preferences in your user account.

Time Position Orientation Groundspeed Altitude Reporting Facility
EDT Latitude Longitude Course Direction KTS MPH feet Rate Location/Type
11:43PM 24.9590 54.9850 252° West 389 448 12,600  Level FlightAware
11:44PM 24.7849 53.7759 252° West  Level Estimated
11:44PM 24.8870 54.9680 192° South 393 452 15,100  Level FlightAware
11:45PM 24.8200 54.9380 202° Southwest 407 468 16,500 2,280 Climbing FlightAware
11:45PM 24.7510 54.8930 211° Southwest 399 459 18,400 2,400 Climbing FlightAware
11:46PM 24.6890 54.8510 212° Southwest 399 459 19,900 2,040 Climbing FlightAware
11:47PM 24.6030 54.7940 211° Southwest 416 479 21,500 1,980 Climbing FlightAware
11:48PM 24.5400 54.7530 211° Southwest 412 474 22,900 1,980 Climbing FlightAware
11:48PM 24.4780 54.7120 211° Southwest 417 480 24,000 1,740 Climbing FlightAware
11:49PM 24.3940 54.6560 211° Southwest 423 487 25,400 1,560 Climbing FlightAware
11:50PM 24.3270 54.6060 214° Southwest 434 499 26,400 1,380 Climbing FlightAware
11:50PM 24.2620 54.5570 215° Southwest 431 496 27,300 1,260 Climbing FlightAware
11:51PM 24.2140 54.4900 232° Southwest 429 494 28,100 1,260 Climbing FlightAware
11:52PM 24.1670 54.3980 241° Southwest 441 507 29,100 1,260 Climbing FlightAware
11:53PM 24.1250 54.3150 241° Southwest 436 502 30,000 600 Climbing FlightAware
11:53PM 24.0840 54.2370 240° Southwest 432 497 30,000  Level FlightAware
11:54PM 24.0440 54.1600 240° Southwest 433 498 30,000  Level FlightAware
11:55PM 23.9970 54.0680 241° Southwest 433 498 30,000  Level FlightAware
11:55PM 23.9590 53.9970 240° Southwest 430 495 30,000  Level FlightAware
11:56PM 23.9120 53.9090 240° Southwest 431 496 30,000  Level FlightAware
11:57PM 23.8740 53.8360 240° Southwest 431 496 30,000  Level FlightAware
11:57PM 23.8320 53.7580 240° Southwest 430 495 30,000  Level FlightAware
11:58PM 23.7890 53.6770 240° Southwest 430 495 30,000  Level FlightAware
11:59PM 23.7460 53.5960 240° Southwest 430 495 30,000  Level FlightAware
12:00AM 23.7040 53.5170 240° Southwest 430 495 30,000  Level FlightAware
12:00AM 23.6620 53.4380 240° Southwest 430 495 30,000  Level FlightAware
12:01AM 23.6200 53.3580 240° Southwest 431 496 30,000  Level FlightAware
12:02AM 23.5750 53.2730 240° Southwest 431 496 30,000  Level FlightAware
12:02AM 23.5340 53.1970 240° Southwest 432 497 30,000  Level FlightAware
12:03AM 23.4930 53.1200 240° Southwest 432 497 30,000  Level FlightAware
12:04AM 23.4490 53.0360 240° Southwest 432 497 30,000  Level FlightAware
12:04AM 23.4160 52.9750 239° Southwest 432 497 30,000  Level FlightAware
12:05AM 23.3740 52.8970 240° Southwest 432 497 30,000  Level FlightAware
12:06AM 23.3140 52.7800 241° Southwest 432 497 30,000  Level FlightAware
12:07AM 23.2810 52.7160 241° Southwest 432 497 30,000  Level FlightAware
12:07AM 23.2360 52.6250 242° Southwest 437 503 30,000  Level FlightAware
12:08AM 23.1900 52.5490 237° Southwest 437 503 30,000  Level FlightAware
12:09AM 23.1390 52.4830 230° Southwest 437 503 30,000  Level FlightAware
12:10AM 23.0960 52.4020 240° Southwest 437 503 30,000  Level FlightAware
12:10AM 23.0620 52.3380 240° Southwest 437 503 30,000  Level FlightAware
12:11AM 22.8720 52.4940 143° Southeast 30,000  Level FlightAware
12:11AM 22.8180 52.4770 196° South 457 526 30,000  Level FlightAware
12:12AM 22.7570 52.4500 202° Southwest 457 526 30,000  Level FlightAware
12:12AM 22.6730 52.4140 202° Southwest 457 526 30,000  Level FlightAware
12:13AM 22.6070 52.3840 203° Southwest 457 526 30,000  Level FlightAware
12:14AM 22.5400 52.3550 202° Southwest 457 526 30,000  Level FlightAware
12:14AM 22.4730 52.3260 202° Southwest 457 526 30,000  Level FlightAware
12:15AM 22.4070 52.2970 202° Southwest 457 526 30,000  Level FlightAware
12:16AM 22.3400 52.2680 202° Southwest 457 526 30,000  Level FlightAware
12:17AM 22.2570 52.2310 202° Southwest 457 526 30,000  Level FlightAware
12:17AM 22.1900 52.2020 202° Southwest 457 526 30,000  Level FlightAware
12:18AM 22.1230 52.1730 202° Southwest 457 526 30,000  Level FlightAware
12:19AM 22.0400 52.1370 202° Southwest 457 526 30,000  Level FlightAware
12:19AM 21.9730 52.1080 202° Southwest 457 526 30,000  Level FlightAware
12:20AM 21.9070 52.0790 202° Southwest 457 526 30,000  Level FlightAware
12:21AM 21.8400 52.0500 202° Southwest 457 526 30,000  Level FlightAware
12:23AM 21.7641 51.8219 250° West  Level Estimated
12:24AM 21.7214 51.6940 250° West  Level Estimated
12:25AM 21.6786 51.5663 250° West  Level Estimated
12:26AM 21.6357 51.4386 250° West  Level Estimated
12:27AM 21.5927 51.3110 250° West  Level Estimated
12:28AM 21.5496 51.1835 250° West  Level Estimated
12:29AM 21.5064 51.0561 250° West  Level Estimated
12:30AM 21.4631 50.9287 250° West  Level Estimated
12:31AM 21.4197 50.8014 250° West  Level Estimated
12:32AM 21.3762 50.6742 250° West  Level Estimated
12:33AM 21.3326 50.5471 250° West  Level Estimated
12:34AM 21.2890 50.4200 250° West  Level Estimated
12:35AM 21.2452 50.2930 250° West  Level Estimated
12:36AM 21.2013 50.1661 250° West  Level Estimated
12:37AM 21.1574 50.0392 250° West  Level Estimated
12:38AM 21.1133 49.9125 250° West  Level Estimated
12:39AM 21.0692 49.7858 250° West  Level Estimated
12:40AM 21.0249 49.6592 249° West  Level Estimated
12:41AM 20.9806 49.5326 249° West  Level Estimated
12:42AM 20.9362 49.4062 249° West  Level Estimated
12:43AM 20.8916 49.2798 249° West  Level Estimated
12:44AM 20.8470 49.1535 249° West  Level Estimated
12:45AM 20.8023 49.0272 249° West  Level Estimated
12:46AM 20.7575 48.9011 249° West  Level Estimated
12:47AM 20.7126 48.7750 249° West  Level Estimated
12:48AM 20.6677 48.6490 249° West  Level Estimated
12:49AM 20.6226 48.5230 249° West  Level Estimated
12:50AM 20.5774 48.3972 249° West  Level Estimated
12:51AM 20.5322 48.2714 249° West  Level Estimated
12:52AM 20.4868 48.1457 249° West  Level Estimated
12:53AM 20.4414 48.0201 249° West  Level Estimated
12:54AM 20.3958 47.8945 249° West  Level Estimated
12:55AM 20.3502 47.7690 249° West  Level Estimated
12:56AM 20.3045 47.6436 249° West  Level Estimated
12:57AM 20.2587 47.5182 249° West  Level Estimated
12:58AM 20.2128 47.3930 249° West  Level Estimated
12:59AM 20.1668 47.2678 249° West  Level Estimated
01:00AM 20.1208 47.1427 249° West  Level Estimated
01:01AM 20.0746 47.0176 249° West  Level Estimated
01:02AM 20.0284 46.8926 249° West  Level Estimated
01:03AM 19.9821 46.7677 248° West  Level Estimated
01:04AM 19.9357 46.6429 248° West  Level Estimated
01:05AM 19.8892 46.5182 248° West  Level Estimated
01:06AM 19.8426 46.3935 248° West  Level Estimated
01:07AM 19.7959 46.2689 248° West  Level Estimated
01:08AM 19.7491 46.1443 248° West  Level Estimated
01:09AM 19.7023 46.0199 248° West  Level Estimated
01:10AM 19.6554 45.8955 248° West  Level Estimated
01:11AM 19.6083 45.7712 248° West  Level Estimated
01:12AM 19.5612 45.6469 248° West  Level Estimated
01:13AM 19.5140 45.5228 248° West  Level Estimated
01:14AM 19.4668 45.3987 248° West  Level Estimated
01:15AM 19.4194 45.2746 248° West  Level Estimated
01:16AM 19.3720 45.1507 248° West  Level Estimated
01:17AM 19.3244 45.0268 248° West  Level Estimated
01:18AM 19.2768 44.9030 248° West  Level Estimated
01:19AM 19.2292 44.7793 248° West  Level Estimated
01:20AM 19.1814 44.6556 248° West  Level Estimated
01:21AM 19.1335 44.5320 248° West  Level Estimated
01:22AM 19.0856 44.4085 248° West  Level Estimated
01:23AM 19.0375 44.2850 248° West  Level Estimated
01:24AM 18.9895 44.1617 248° West  Level Estimated
01:25AM 18.9413 44.0383 248° West  Level Estimated
01:26AM 18.8930 43.9151 248° West  Level Estimated
01:27AM 18.8446 43.7920 247° West  Level Estimated
01:28AM 18.7962 43.6689 247° West  Level Estimated
01:29AM 18.7477 43.5458 247° West  Level Estimated
01:30AM 18.6991 43.4229 247° West  Level Estimated
01:31AM 18.6504 43.3000 247° West  Level Estimated
01:32AM 18.6017 43.1772 247° West  Level Estimated
01:33AM 18.5529 43.0545 247° West  Level Estimated
01:34AM 18.5040 42.9318 247° West  Level Estimated
01:35AM 18.4550 42.8092 247° West  Level Estimated
01:36AM 18.4059 42.6867 247° West  Level Estimated
01:37AM 18.3567 42.5642 247° West  Level Estimated
01:38AM 18.3075 42.4418 247° West  Level Estimated
01:39AM 18.2582 42.3195 247° West  Level Estimated
01:40AM 18.2088 42.1973 247° West  Level Estimated
01:41AM 18.1594 42.0751 247° West  Level Estimated
01:42AM 18.1098 41.9530 247° West  Level Estimated
01:43AM 18.0602 41.8309 247° West  Level Estimated
01:44AM 18.0105 41.7090 247° West  Level Estimated
01:45AM 17.9608 41.5870 247° West  Level Estimated
01:46AM 17.9109 41.4652 247° West  Level Estimated
01:47AM 17.8610 41.3434 247° West  Level Estimated
01:48AM 17.8110 41.2217 247° West  Level Estimated
01:49AM 17.7610 41.1001 247° West  Level Estimated
01:50AM 17.7108 40.9785 247° West  Level Estimated
01:51AM 17.6606 40.8570 247° West  Level Estimated
01:52AM 17.6103 40.7356 247° West  Level Estimated
01:53AM 17.5600 40.6143 246° West  Level Estimated
01:54AM 17.5095 40.4930 246° West  Level Estimated
01:55AM 17.4590 40.3717 246° West  Level Estimated
01:56AM 17.4084 40.2506 246° West  Level Estimated
01:57AM 17.3578 40.1295 246° West  Level Estimated
01:58AM 17.3070 40.0085 246° West  Level Estimated
01:59AM 17.2562 39.8875 246° West  Level Estimated
02:00AM 17.2054 39.7666 246° West  Level Estimated
02:01AM 17.1544 39.6458 246° West  Level Estimated
02:02AM 17.1034 39.5250 246° West  Level Estimated
02:03AM 17.0523 39.4044 246° West  Level Estimated
02:04AM 17.0011 39.2837 246° West  Level Estimated
02:05AM 16.9499 39.1632 246° West  Level Estimated
02:06AM 16.8986 39.0427 246° West  Level Estimated
02:07AM 16.8472 38.9222 246° West  Level Estimated
02:08AM 16.7958 38.8019 246° West  Level Estimated
02:09AM 16.7442 38.6816 246° West  Level Estimated
02:10AM 16.6927 38.5614 246° West  Level Estimated
02:11AM 16.6410 38.4412 246° West  Level Estimated
02:12AM 16.5893 38.3211 246° West  Level Estimated
02:13AM 16.5375 38.2010 246° West  Level Estimated
02:14AM 16.4856 38.0811 246° West  Level Estimated
02:15AM 16.4337 37.9612 246° West  Level Estimated
02:16AM 16.3817 37.8413 246° West  Level Estimated
02:17AM 16.3297 37.7215 246° West  Level Estimated
02:18AM 16.2775 37.6018 246° West  Level Estimated
02:19AM 16.2253 37.4822 246° West  Level Estimated
02:20AM 16.1731 37.3626 246° West  Level Estimated
02:21AM 16.1207 37.2431 246° West  Level Estimated
02:22AM 16.0683 37.1236 245° Southwest  Level Estimated
02:23AM 16.0159 37.0042 245° Southwest  Level Estimated
02:24AM 15.9633 36.8849 245° Southwest  Level Estimated
02:25AM 15.9107 36.7656 245° Southwest  Level Estimated
02:26AM 15.8581 36.6464 245° Southwest  Level Estimated
02:27AM 15.8053 36.5272 245° Southwest  Level Estimated
02:28AM 15.7526 36.4081 245° Southwest  Level Estimated
02:29AM 15.6997 36.2891 245° Southwest  Level Estimated
02:30AM 15.6468 36.1702 245° Southwest  Level Estimated
02:31AM 15.5938 36.0513 245° Southwest  Level Estimated
02:32AM 15.5407 35.9324 245° Southwest  Level Estimated
02:33AM 15.4876 35.8136 245° Southwest  Level Estimated
02:34AM 15.4344 35.6949 245° Southwest  Level Estimated
02:35AM 15.3812 35.5762 245° Southwest  Level Estimated
02:36AM 15.3279 35.4576 245° Southwest  Level Estimated
02:37AM 15.2745 35.3391 245° Southwest  Level Estimated
02:38AM 15.2211 35.2206 245° Southwest  Level Estimated
02:39AM 15.1676 35.1022 245° Southwest  Level Estimated
02:40AM 15.1141 34.9838 245° Southwest  Level Estimated
02:41AM 15.0604 34.8656 245° Southwest  Level Estimated
02:42AM 15.0068 34.7473 245° Southwest  Level Estimated
02:43AM 14.9530 34.6291 245° Southwest  Level Estimated
02:44AM 14.8992 34.5110 245° Southwest  Level Estimated
02:45AM 14.8454 34.3929 245° Southwest  Level Estimated
02:46AM 14.7915 34.2749 245° Southwest  Level Estimated
02:47AM 14.7375 34.1570 245° Southwest  Level Estimated
02:48AM 14.6834 34.0391 245° Southwest  Level Estimated
02:49AM 14.6293 33.9213 245° Southwest  Level Estimated
02:50AM 14.5752 33.8035 245° Southwest  Level Estimated
02:51AM 14.5210 33.6858 245° Southwest  Level Estimated
02:52AM 14.4667 33.5682 245° Southwest  Level Estimated
02:53AM 14.4124 33.4506 245° Southwest  Level Estimated
02:54AM 14.3580 33.3330 244° Southwest  Level Estimated
02:55AM 14.3035 33.2156 244° Southwest  Level Estimated
02:56AM 14.2490 33.0981 244° Southwest  Level Estimated
02:57AM 14.1945 32.9808 244° Southwest  Level Estimated
02:58AM 14.1398 32.8635 244° Southwest  Level Estimated
02:59AM 14.0852 32.7462 244° Southwest  Level Estimated
03:00AM 14.0304 32.6290 244° Southwest  Level Estimated
03:01AM 13.9756 32.5119 244° Southwest  Level Estimated
03:02AM 13.9208 32.3948 244° Southwest  Level Estimated
03:03AM 13.8659 32.2777 244° Southwest  Level Estimated
03:04AM 13.8109 32.1608 244° Southwest  Level Estimated
03:05AM 13.7559 32.0439 244° Southwest  Level Estimated
03:06AM 13.7009 31.9270 244° Southwest  Level Estimated
03:07AM 13.6457 31.8102 244° Southwest  Level Estimated
03:08AM 13.5906 31.6934 244° Southwest  Level Estimated
03:09AM 13.5353 31.5767 244° Southwest  Level Estimated
03:10AM 13.4800 31.4601 244° Southwest  Level Estimated
03:11AM 13.4247 31.3435 244° Southwest  Level Estimated
03:12AM 13.3693 31.2270 244° Southwest  Level Estimated
03:13AM 13.3139 31.1105 244° Southwest  Level Estimated
03:14AM 13.2584 30.9940 244° Southwest  Level Estimated
03:15AM 13.2028 30.8777 244° Southwest  Level Estimated
03:16AM 13.1472 30.7613 244° Southwest  Level Estimated
03:17AM 13.0915 30.6451 244° Southwest  Level Estimated
03:18AM 13.0358 30.5289 244° Southwest  Level Estimated
03:19AM 12.9810 30.4147 244° Southwest  Level Estimated
03:20AM 12.9262 30.3006 244° Southwest  Level Estimated
03:21AM 12.8713 30.1866 244° Southwest  Level Estimated
03:22AM 12.8164 30.0725 244° Southwest  Level Estimated
03:23AM 12.7614 29.9586 244° Southwest  Level Estimated
03:24AM 12.7064 29.8447 244° Southwest  Level Estimated
03:25AM 12.6513 29.7309 244° Southwest  Level Estimated
03:26AM 12.5961 29.6171 244° Southwest  Level Estimated
03:27AM 12.5410 29.5033 244° Southwest  Level Estimated
03:28AM 12.4857 29.3896 244° Southwest  Level Estimated
03:29AM 12.4305 29.2759 244° Southwest  Level Estimated
03:30AM 12.3751 29.1623 244° Southwest  Level Estimated
03:31AM 12.3198 29.0488 243° Southwest  Level Estimated
03:32AM 12.2643 28.9353 243° Southwest  Level Estimated
03:33AM 12.2089 28.8218 243° Southwest  Level Estimated
03:34AM 12.1534 28.7084 243° Southwest  Level Estimated
03:35AM 12.0978 28.5950 243° Southwest  Level Estimated
03:36AM 12.0422 28.4817 243° Southwest  Level Estimated
03:37AM 11.9866 28.3685 243° Southwest  Level Estimated
03:38AM 11.9309 28.2552 243° Southwest  Level Estimated
03:39AM 11.8751 28.1420 243° Southwest  Level Estimated
03:40AM 11.8194 28.0289 243° Southwest  Level Estimated
03:41AM 11.7635 27.9158 243° Southwest  Level Estimated
03:42AM 11.7077 27.8028 243° Southwest  Level Estimated
03:43AM 11.6517 27.6898 243° Southwest  Level Estimated
03:44AM 11.5958 27.5769 243° Southwest  Level Estimated
03:45AM 11.5398 27.4639 243° Southwest  Level Estimated
03:46AM 11.4837 27.3511 243° Southwest  Level Estimated
03:47AM 11.4276 27.2383 243° Southwest  Level Estimated
03:48AM 11.3715 27.1255 243° Southwest  Level Estimated
03:49AM 11.3153 27.0128 243° Southwest  Level Estimated
03:50AM 11.2591 26.9001 243° Southwest  Level Estimated
03:51AM 11.2028 26.7875 243° Southwest  Level Estimated
03:52AM 11.1465 26.6749 243° Southwest  Level Estimated
03:53AM 11.0902 26.5623 243° Southwest  Level Estimated
03:54AM 11.0338 26.4498 243° Southwest  Level Estimated
03:55AM 10.9773 26.3374 243° Southwest  Level Estimated
03:56AM 10.9209 26.2250 243° Southwest  Level Estimated
03:57AM 10.8644 26.1126 243° Southwest  Level Estimated
03:58AM 10.8078 26.0002 243° Southwest  Level Estimated
03:59AM 10.7512 25.8880 243° Southwest  Level Estimated
04:00AM 10.6946 25.7757 243° Southwest  Level Estimated
04:01AM 10.6379 25.6635 243° Southwest  Level Estimated
04:02AM 10.5812 25.5513 243° Southwest  Level Estimated
04:03AM 10.5245 25.4392 243° Southwest  Level Estimated
04:04AM 10.4677 25.3271 243° Southwest  Level Estimated
04:05AM 10.4108 25.2151 243° Southwest  Level Estimated
04:06AM 10.3540 25.1031 243° Southwest  Level Estimated
04:07AM 10.2971 24.9911 243° Southwest  Level Estimated
04:08AM 10.2401 24.8792 243° Southwest  Level Estimated
04:09AM 10.1831 24.7673 243° Southwest  Level Estimated
04:10AM 10.1261 24.6555 243° Southwest  Level Estimated
04:11AM 10.0690 24.5437 243° Southwest  Level Estimated
04:12AM 10.0119 24.4319 243° Southwest  Level Estimated
04:13AM 9.9548 24.3202 243° Southwest  Level Estimated
04:14AM 9.8976 24.2085 243° Southwest  Level Estimated
04:15AM 9.8404 24.0969 243° Southwest  Level Estimated
04:16AM 9.7831 23.9853 243° Southwest  Level Estimated
04:17AM 9.7259 23.8737 242° Southwest  Level Estimated
04:18AM 9.6685 23.7622 242° Southwest  Level Estimated
04:19AM 9.6112 23.6507 242° Southwest  Level Estimated
04:20AM 9.5538 23.5392 242° Southwest  Level Estimated
04:21AM 9.4964 23.4278 242° Southwest  Level Estimated
04:22AM 9.4389 23.3165 242° Southwest  Level Estimated
04:23AM 9.3814 23.2051 242° Southwest  Level Estimated
04:24AM 9.3239 23.0938 242° Southwest  Level Estimated
04:25AM 9.2663 22.9825 242° Southwest  Level Estimated
04:26AM 9.2087 22.8713 242° Southwest  Level Estimated
04:27AM 9.1511 22.7601 242° Southwest  Level Estimated
04:28AM 9.0934 22.6490 242° Southwest  Level Estimated
04:29AM 9.0357 22.5378 242° Southwest  Level Estimated
04:30AM 8.9780 22.4268 242° Southwest  Level Estimated
04:31AM 8.9202 22.3157 242° Southwest  Level Estimated
04:32AM 8.8624 22.2047 242° Southwest  Level Estimated
04:33AM 8.8045 22.0937 242° Southwest  Level Estimated
04:34AM 8.7467 21.9827 242° Southwest  Level Estimated
04:35AM 8.6888 21.8718 242° Southwest  Level Estimated
04:36AM 8.6308 21.7610 242° Southwest  Level Estimated
04:37AM 8.5729 21.6501 242° Southwest  Level Estimated
04:38AM 8.5149 21.5393 242° Southwest  Level Estimated
04:39AM 8.4569 21.4285 242° Southwest  Level Estimated
04:40AM 8.3988 21.3178 242° Southwest  Level Estimated
04:41AM 8.3407 21.2071 242° Southwest  Level Estimated
04:42AM 8.2826 21.0964 242° Southwest  Level Estimated
04:43AM 8.2244 20.9858 242° Southwest  Level Estimated
04:44AM 8.1663 20.8752 242° Southwest  Level Estimated
04:45AM 8.1080 20.7646 242° Southwest  Level Estimated
04:46AM 8.0498 20.6540 242° Southwest  Level Estimated
04:47AM 7.9915 20.5435 242° Southwest  Level Estimated
04:48AM 7.9332 20.4330 242° Southwest  Level Estimated
04:49AM 7.8749 20.3226 242° Southwest  Level Estimated
04:50AM 7.8165 20.2122 242° Southwest  Level Estimated
04:51AM 7.7582 20.1018 242° Southwest  Level Estimated
04:52AM 7.6997 19.9914 242° Southwest  Level Estimated
04:53AM 7.6413 19.8811 242° Southwest  Level Estimated
04:54AM 7.5828 19.7708 242° Southwest  Level Estimated
04:55AM 7.5243 19.6605 242° Southwest  Level Estimated
04:56AM 7.4658 19.5503 242° Southwest  Level Estimated
04:57AM 7.4072 19.4401 242° Southwest  Level Estimated
04:58AM 7.3487 19.3299 242° Southwest  Level Estimated
04:59AM 7.2901 19.2197 242° Southwest  Level Estimated
05:00AM 7.2314 19.1096 242° Southwest  Level Estimated
05:01AM 7.1728 18.9995 242° Southwest  Level Estimated
05:02AM 7.1141 18.8895 242° Southwest  Level Estimated
05:03AM 7.0554 18.7794 242° Southwest  Level Estimated
05:04AM 6.9966 18.6694 242° Southwest  Level Estimated
05:05AM 6.9379 18.5594 242° Southwest  Level Estimated
05:06AM 6.8791 18.4495 242° Southwest  Level Estimated
05:07AM 6.8203 18.3395 242° Southwest  Level Estimated
05:08AM 6.7614 18.2296 242° Southwest  Level Estimated
05:09AM 6.7026 18.1198 242° Southwest  Level Estimated
05:10AM 6.6437 18.0099 242° Southwest  Level Estimated
05:11AM 6.5848 17.9001 242° Southwest  Level Estimated
05:12AM 6.5258 17.7903 242° Southwest  Level Estimated
05:13AM 6.4669 17.6805 242° Southwest  Level Estimated
05:14AM 6.4079 17.5708 242° Southwest  Level Estimated
05:15AM 6.3489 17.4611 242° Southwest  Level Estimated
05:16AM 6.2899 17.3514 242° Southwest  Level Estimated
05:17AM 6.2308 17.2417 242° Southwest  Level Estimated
05:18AM 6.1717 17.1321 242° Southwest  Level Estimated
05:19AM 6.1126 17.0225 242° Southwest  Level Estimated
05:20AM 6.0535 16.9129 242° Southwest  Level Estimated
05:21AM 5.9944 16.8033 242° Southwest  Level Estimated
05:22AM 5.9352 16.6938 242° Southwest  Level Estimated
05:23AM 5.8760 16.5842 241° Southwest  Level Estimated
05:24AM 5.8168 16.4747 241° Southwest  Level Estimated
05:25AM 5.7576 16.3652 241° Southwest  Level Estimated
05:26AM 5.6983 16.2558 241° Southwest  Level Estimated
05:27AM 5.6391 16.1464 241° Southwest  Level Estimated
05:28AM 5.5798 16.0370 241° Southwest  Level Estimated
05:29AM 5.5205 15.9276 241° Southwest  Level Estimated
05:30AM 5.4611 15.8182 241° Southwest  Level Estimated
05:31AM 5.4018 15.7089 241° Southwest  Level Estimated
05:32AM 5.3424 15.5996 241° Southwest  Level Estimated
05:33AM 5.2830 15.4902 241° Southwest  Level Estimated
05:34AM 5.2236 15.3810 241° Southwest  Level Estimated
05:35AM 5.1642 15.2717 241° Southwest  Level Estimated
05:36AM 5.1047 15.1625 241° Southwest  Level Estimated
05:37AM 5.0453 15.0533 241° Southwest  Level Estimated
05:38AM 4.9858 14.9440 241° Southwest  Level Estimated
05:39AM 4.9263 14.8349 241° Southwest  Level Estimated
05:40AM 4.8668 14.7257 241° Southwest  Level Estimated
05:41AM 4.8072 14.6166 241° Southwest  Level Estimated
05:42AM 4.7477 14.5075 241° Southwest  Level Estimated
05:43AM 4.6881 14.3983 241° Southwest  Level Estimated
05:44AM 4.6285 14.2893 241° Southwest  Level Estimated
05:45AM 4.5689 14.1802 241° Southwest  Level Estimated
05:46AM 4.5093 14.0712 241° Southwest  Level Estimated
05:47AM 4.4496 13.9621 241° Southwest  Level Estimated
05:48AM 4.3900 13.8531 241° Southwest  Level Estimated
05:49AM 4.3303 13.7441 241° Southwest  Level Estimated
05:50AM 4.2706 13.6351 241° Southwest  Level Estimated
05:51AM 4.2109 13.5262 241° Southwest  Level Estimated
05:52AM 4.1512 13.4172 241° Southwest  Level Estimated
05:53AM 4.0915 13.3083 241° Southwest  Level Estimated
05:54AM 4.0318 13.1994 241° Southwest  Level Estimated
05:55AM 3.9720 13.0905 241° Southwest  Level Estimated
05:56AM 3.9122 12.9816 241° Southwest  Level Estimated
05:57AM 3.8524 12.8728 241° Southwest  Level Estimated
05:58AM 3.7926 12.7639 241° Southwest  Level Estimated
05:59AM 3.7328 12.6551 241° Southwest  Level Estimated
06:00AM 3.6730 12.5463 241° Southwest  Level Estimated
06:01AM 3.6132 12.4375 241° Southwest  Level Estimated
06:02AM 3.5533 12.3287 241° Southwest  Level Estimated
06:03AM 3.4934 12.2199 241° Southwest  Level Estimated
06:04AM 3.4336 12.1112 241° Southwest  Level Estimated
06:05AM 3.3737 12.0024 241° Southwest  Level Estimated
06:06AM 3.3138 11.8937 241° Southwest  Level Estimated
06:07AM 3.2539 11.7850 241° Southwest  Level Estimated
06:08AM 3.1939 11.6763 241° Southwest  Level Estimated
06:09AM 3.1340 11.5676 241° Southwest  Level Estimated
06:10AM 3.0740 11.4589 241° Southwest  Level Estimated
06:11AM 3.0141 11.3502 241° Southwest  Level Estimated
06:12AM 2.9541 11.2416 241° Southwest  Level Estimated
06:13AM 2.8941 11.1329 241° Southwest  Level Estimated
06:14AM 2.8341 11.0243 241° Southwest  Level Estimated
06:15AM 2.7741 10.9157 241° Southwest  Level Estimated
06:16AM 2.7141 10.8070 241° Southwest  Level Estimated
06:17AM 2.6541 10.6984 241° Southwest  Level Estimated
06:18AM 2.5941 10.5899 241° Southwest  Level Estimated
06:19AM 2.5340 10.4813 241° Southwest  Level Estimated
06:20AM 2.4740 10.3727 241° Southwest  Level Estimated
06:21AM 2.4139 10.2641 241° Southwest  Level Estimated
06:22AM 2.3539 10.1556 241° Southwest  Level Estimated
06:23AM 2.2938 10.0471 241° Southwest  Level Estimated
06:24AM 2.2337 9.9385 241° Southwest  Level Estimated
06:25AM 2.1736 9.8300 241° Southwest  Level Estimated
06:26AM 2.1135 9.7215 241° Southwest  Level Estimated
06:27AM 2.0534 9.6130 241° Southwest  Level Estimated
06:28AM 1.9933 9.5045 241° Southwest  Level Estimated
06:29AM 1.9332 9.3960 241° Southwest  Level Estimated
06:30AM 1.8730 9.2875 241° Southwest  Level Estimated
06:31AM 1.8129 9.1790 241° Southwest  Level Estimated
06:32AM 1.7527 9.0706 241° Southwest  Level Estimated
06:33AM 1.6926 8.9621 241° Southwest  Level Estimated
06:34AM 1.6324 8.8537 241° Southwest  Level Estimated
06:35AM 1.5723 8.7452 241° Southwest  Level Estimated
06:36AM 1.5121 8.6368 241° Southwest  Level Estimated
06:37AM 1.4519 8.5283 241° Southwest  Level Estimated
06:38AM 1.3917 8.4199 241° Southwest  Level Estimated
06:39AM 1.3316 8.3115 241° Southwest  Level Estimated
06:40AM 1.2714 8.2030 241° Southwest  Level Estimated
06:41AM 1.2112 8.0946 241° Southwest  Level Estimated
06:42AM 1.1510 7.9862 241° Southwest  Level Estimated
06:43AM 1.0908 7.8778 241° Southwest  Level Estimated
06:44AM 1.0306 7.7694 241° Southwest  Level Estimated
06:45AM 0.9704 7.6610 241° Southwest  Level Estimated
06:46AM 0.9102 7.5526 241° Southwest  Level Estimated
06:47AM 0.8500 7.4443 241° Southwest  Level Estimated
06:48AM 0.7897 7.3359 241° Southwest  Level Estimated
06:49AM 0.7295 7.2275 241° Southwest  Level Estimated
06:50AM 0.6693 7.1191 241° Southwest  Level Estimated
06:51AM 0.6091 7.0107 241° Southwest  Level Estimated
06:52AM 0.5488 6.9023 241° Southwest  Level Estimated
06:53AM 0.4886 6.7940 241° Southwest  Level Estimated
06:54AM 0.4284 6.6856 241° Southwest  Level Estimated
06:55AM 0.3681 6.5772 241° Southwest  Level Estimated
06:56AM 0.3079 6.4689 241° Southwest  Level Estimated
06:57AM 0.2477 6.3605 241° Southwest  Level Estimated
06:58AM 0.1874 6.2521 241° Southwest  Level Estimated
06:59AM 0.1272 6.1438 241° Southwest  Level Estimated
07:00AM 0.0670 6.0354 241° Southwest  Level Estimated
07:01AM 0.0067 5.9271 241° Southwest  Level Estimated
07:02AM -0.0535 5.8187 241° Southwest  Level Estimated
07:03AM -0.1138 5.7103 241° Southwest  Level Estimated
07:04AM -0.1740 5.6020 241° Southwest  Level Estimated
07:05AM -0.2342 5.4936 241° Southwest  Level Estimated
07:06AM -0.2945 5.3853 241° Southwest  Level Estimated
07:07AM -0.3547 5.2769 241° Southwest  Level Estimated
07:08AM -0.4149 5.1685 241° Southwest  Level Estimated
07:09AM -0.4752 5.0601 241° Southwest  Level Estimated
07:10AM -0.5354 4.9518 241° Southwest  Level Estimated
07:11AM -0.5956 4.8434 241° Southwest  Level Estimated
07:12AM -0.6559 4.7350 241° Southwest  Level Estimated
07:13AM -0.7161 4.6266 241° Southwest  Level Estimated
07:14AM -0.7763 4.5183 241° Southwest  Level Estimated
07:15AM -0.8365 4.4099 241° Southwest  Level Estimated
07:16AM -0.8967 4.3015 241° Southwest  Level Estimated
07:17AM -0.9570 4.1931 241° Southwest  Level Estimated
07:18AM -1.0172 4.0847 241° Southwest  Level Estimated
07:19AM -1.0774 3.9763 241° Southwest  Level Estimated
07:20AM -1.1376 3.8679 241° Southwest  Level Estimated
07:21AM -1.1978 3.7595 241° Southwest  Level Estimated
07:22AM -1.2580 3.6511 241° Southwest  Level Estimated
07:23AM -1.3182 3.5427 241° Southwest  Level Estimated
07:24AM -1.3783 3.4342 241° Southwest  Level Estimated
07:25AM -1.4385 3.3258 241° Southwest  Level Estimated
07:26AM -1.4987 3.2174 241° Southwest  Level Estimated
07:27AM -1.5589 3.1089 241° Southwest  Level Estimated
07:28AM -1.6190 3.0005 241° Southwest  Level Estimated
07:29AM -1.6792 2.8920 241° Southwest  Level Estimated
07:30AM -1.7393 2.7836 241° Southwest  Level Estimated
07:31AM -1.7995 2.6751 241° Southwest  Level Estimated
07:32AM -1.8596 2.5666 241° Southwest  Level Estimated
07:33AM -1.9197 2.4582 241° Southwest  Level Estimated
07:34AM -1.9799 2.3497 241° Southwest  Level Estimated
07:35AM -2.0400 2.2412 241° Southwest  Level Estimated
07:36AM -2.1001 2.1327 241° Southwest  Level Estimated
07:37AM -2.1602 2.0242 241° Southwest  Level Estimated
07:38AM -2.2203 1.9156 241° Southwest  Level Estimated
07:39AM -2.2804 1.8071 241° Southwest  Level Estimated
07:40AM -2.3405 1.6986 241° Southwest  Level Estimated
07:41AM -2.4005 1.5900 241° Southwest  Level Estimated
07:42AM -2.4606 1.4815 241° Southwest  Level Estimated
07:43AM -2.5206 1.3729 241° Southwest  Level Estimated
07:44AM -2.5807 1.2643 241° Southwest  Level Estimated
07:45AM -2.6407 1.1557 241° Southwest  Level Estimated
07:46AM -2.7007 1.0471 241° Southwest  Level Estimated
07:47AM -2.7608 0.9385 241° Southwest  Level Estimated
07:48AM -2.8208 0.8299 241° Southwest  Level Estimated
07:49AM -2.8808 0.7213 241° Southwest  Level Estimated
07:50AM -2.9408 0.6126 241° Southwest  Level Estimated
07:51AM -3.0007 0.5040 241° Southwest  Level Estimated
07:52AM -3.0607 0.3953 241° Southwest  Level Estimated
07:53AM -3.1206 0.2866 241° Southwest  Level Estimated
07:54AM -3.1806 0.1779 241° Southwest  Level Estimated
07:55AM -3.2405 0.0692 241° Southwest  Level Estimated
07:56AM -3.3004 -0.0395 241° Southwest  Level Estimated
07:57AM -3.3603 -0.1482 241° Southwest  Level Estimated
07:58AM -3.4202 -0.2570 241° Southwest  Level Estimated
07:59AM -3.4801 -0.3657 241° Southwest  Level Estimated
08:00AM -3.5400 -0.4745 241° Southwest  Level Estimated
08:01AM -3.5998 -0.5833 241° Southwest  Level Estimated
08:02AM -3.6597 -0.6921 241° Southwest  Level Estimated
08:03AM -3.7195 -0.8009 241° Southwest  Level Estimated
08:04AM -3.7793 -0.9097 241° Southwest  Level Estimated
08:05AM -3.8391 -1.0186 241° Southwest  Level Estimated
08:06AM -3.8989 -1.1274 241° Southwest  Level Estimated
08:07AM -3.9587 -1.2363 241° Southwest  Level Estimated
08:08AM -4.0185 -1.3452 241° Southwest  Level Estimated
08:09AM -4.0782 -1.4541 241° Southwest  Level Estimated
08:10AM -4.1379 -1.5630 241° Southwest  Level Estimated
08:11AM -4.1977 -1.6719 241° Southwest  Level Estimated
08:12AM -4.2574 -1.7809 241° Southwest  Level Estimated
08:13AM -4.3170 -1.8899 241° Southwest  Level Estimated
08:14AM -4.3767 -1.9989 241° Southwest  Level Estimated
08:15AM -4.4364 -2.1079 241° Southwest  Level Estimated
08:16AM -4.4960 -2.2169 241° Southwest  Level Estimated
08:17AM -4.5556 -2.3259 241° Southwest  Level Estimated
08:18AM -4.6153 -2.4350 241° Southwest  Level Estimated
08:19AM -4.6748 -2.5441 241° Southwest  Level Estimated
08:20AM -4.7344 -2.6532 241° Southwest  Level Estimated
08:21AM -4.7940 -2.7623 241° Southwest  Level Estimated
08:22AM -4.8535 -2.8714 241° Southwest  Level Estimated
08:23AM -4.9130 -2.9806 241° Southwest  Level Estimated
08:24AM -4.9725 -3.0897 241° Southwest  Level Estimated
08:25AM -5.0320 -3.1989 241° Southwest  Level Estimated
08:26AM -5.0915 -3.3081 241° Southwest  Level Estimated
08:27AM -5.1509 -3.4174 241° Southwest  Level Estimated
08:28AM -5.2104 -3.5266 241° Southwest  Level Estimated
08:29AM -5.2698 -3.6359 241° Southwest  Level Estimated
08:30AM -5.3292 -3.7452 241° Southwest  Level Estimated
08:31AM -5.3885 -3.8545 241° Southwest  Level Estimated
08:32AM -5.4479 -3.9639 241° Southwest  Level Estimated
08:33AM -5.5072 -4.0732 241° Southwest  Level Estimated
08:34AM -5.5665 -4.1826 241° Southwest  Level Estimated
08:35AM -5.6258 -4.2920 241° Southwest  Level Estimated
08:36AM -5.6851 -4.4014 241° Southwest  Level Estimated
08:37AM -5.7443 -4.5109 241° Southwest  Level Estimated
08:38AM -5.8036 -4.6203 241° Southwest  Level Estimated
08:39AM -5.8628 -4.7298 241° Southwest  Level Estimated
08:40AM -5.9220 -4.8394 241° Southwest  Level Estimated
08:41AM -5.9812 -4.9489 241° Southwest  Level Estimated
08:42AM -6.0403 -5.0585 241° Southwest  Level Estimated
08:43AM -6.0994 -5.1680 242° Southwest  Level Estimated
08:44AM -6.1585 -5.2776 242° Southwest  Level Estimated
08:45AM -6.2176 -5.3873 242° Southwest  Level Estimated
08:46AM -6.2767 -5.4970 242° Southwest  Level Estimated
08:47AM -6.3357 -5.6066 242° Southwest  Level Estimated
08:48AM -6.3947 -5.7164 242° Southwest  Level Estimated
08:49AM -6.4537 -5.8261 242° Southwest  Level Estimated
08:50AM -6.5127 -5.9359 242° Southwest  Level Estimated
08:51AM -6.5716 -6.0456 242° Southwest  Level Estimated
08:52AM -6.6305 -6.1554 242° Southwest  Level Estimated
08:53AM -6.6894 -6.2653 242° Southwest  Level Estimated
08:54AM -6.7483 -6.3752 242° Southwest  Level Estimated
08:55AM -6.8071 -6.4851 242° Southwest  Level Estimated
08:56AM -6.8660 -6.5950 242° Southwest  Level Estimated
08:57AM -6.9248 -6.7049 242° Southwest  Level Estimated
08:58AM -6.9835 -6.8149 242° Southwest  Level Estimated
08:59AM -7.0423 -6.9249 242° Southwest  Level Estimated
09:00AM -7.1010 -7.0349 242° Southwest  Level Estimated
09:01AM -7.1597 -7.1450 242° Southwest  Level Estimated
09:02AM -7.2184 -7.2551 242° Southwest  Level Estimated
09:03AM -7.2770 -7.3652 242° Southwest  Level Estimated
09:04AM -7.3356 -7.4753 242° Southwest  Level Estimated
09:05AM -7.3942 -7.5855 242° Southwest  Level Estimated
09:06AM -7.4528 -7.6957 242° Southwest  Level Estimated
09:07AM -7.5113 -7.8059 242° Southwest  Level Estimated
09:08AM -7.5698 -7.9162 242° Southwest  Level Estimated
09:09AM -7.6283 -8.0265 242° Southwest  Level Estimated
09:10AM -7.6867 -8.1368 242° Southwest  Level Estimated
09:11AM -7.7452 -8.2472 242° Southwest  Level Estimated
09:12AM -7.8035 -8.3575 242° Southwest  Level Estimated
09:13AM -7.8619 -8.4679 242° Southwest  Level Estimated
09:14AM -7.9202 -8.5784 242° Southwest  Level Estimated
09:15AM -7.9785 -8.6889 242° Southwest  Level Estimated
09:16AM -8.0368 -8.7994 242° Southwest  Level Estimated
09:17AM -8.0951 -8.9099 242° Southwest  Level Estimated
09:18AM -8.1533 -9.0205 242° Southwest  Level Estimated
09:19AM -8.2115 -9.1311 242° Southwest  Level Estimated
09:20AM -8.2697 -9.2417 242° Southwest  Level Estimated
09:21AM -8.3278 -9.3524 242° Southwest  Level Estimated
09:22AM -8.3859 -9.4631 242° Southwest  Level Estimated
09:23AM -8.4439 -9.5738 242° Southwest  Level Estimated
09:24AM -8.5020 -9.6846 242° Southwest  Level Estimated
09:25AM -8.5600 -9.7954 242° Southwest  Level Estimated
09:26AM -8.6180 -9.9062 242° Southwest  Level Estimated
09:27AM -8.6759 -10.0171 242° Southwest  Level Estimated
09:28AM -8.7338 -10.1280 242° Southwest  Level Estimated
09:29AM -8.7917 -10.2389 242° Southwest  Level Estimated
09:30AM -8.8495 -10.3499 242° Southwest  Level Estimated
09:31AM -8.9073 -10.4609 242° Southwest  Level Estimated
09:32AM -8.9651 -10.5720 242° Southwest  Level Estimated
09:33AM -9.0229 -10.6831 242° Southwest  Level Estimated
09:34AM -9.0806 -10.7942 242° Southwest  Level Estimated
09:35AM -9.1382 -10.9053 242° Southwest  Level Estimated
09:36AM -9.1959 -11.0165 242° Southwest  Level Estimated
09:37AM -9.2535 -11.1277 242° Southwest  Level Estimated
09:38AM -9.3111 -11.2390 242° Southwest  Level Estimated
09:39AM -9.3686 -11.3503 242° Southwest  Level Estimated
09:40AM -9.4261 -11.4616 242° Southwest  Level Estimated
09:41AM -9.4836 -11.5730 242° Southwest  Level Estimated
09:42AM -9.5410 -11.6844 242° Southwest  Level Estimated
09:43AM -9.5984 -11.7958 242° Southwest  Level Estimated
09:44AM -9.6558 -11.9073 242° Southwest  Level Estimated
09:45AM -9.7131 -12.0188 242° Southwest  Level Estimated
09:46AM -9.7704 -12.1304 242° Southwest  Level Estimated
09:47AM -9.8277 -12.2420 242° Southwest  Level Estimated
09:48AM -9.8849 -12.3536 243° Southwest  Level Estimated
09:49AM -9.9421 -12.4653 243° Southwest  Level Estimated
09:50AM -9.9992 -12.5770 243° Southwest  Level Estimated
09:51AM -10.0563 -12.6887 243° Southwest  Level Estimated
09:52AM -10.1134 -12.8005 243° Southwest  Level Estimated
09:53AM -10.1704 -12.9123 243° Southwest  Level Estimated
09:54AM -10.2274 -13.0242 243° Southwest  Level Estimated
09:55AM -10.2844 -13.1361 243° Southwest  Level Estimated
09:56AM -10.3413 -13.2481 243° Southwest  Level Estimated
09:57AM -10.3982 -13.3601 243° Southwest  Level Estimated
09:58AM -10.4550 -13.4721 243° Southwest  Level Estimated
09:59AM -10.5118 -13.5842 243° Southwest  Level Estimated
10:00AM -10.5686 -13.6963 243° Southwest  Level Estimated
10:01AM -10.6253 -13.8084 243° Southwest  Level Estimated
10:02AM -10.6820 -13.9206 243° Southwest  Level Estimated
10:03AM -10.7386 -14.0329 243° Southwest  Level Estimated
10:04AM -10.7952 -14.1452 243° Southwest  Level Estimated
10:05AM -10.8518 -14.2575 243° Southwest  Level Estimated
10:06AM -10.9083 -14.3699 243° Southwest  Level Estimated
10:07AM -10.9648 -14.4823 243° Southwest  Level Estimated
10:08AM -11.0212 -14.5947 243° Southwest  Level Estimated
10:09AM -11.0776 -14.7072 243° Southwest  Level Estimated
10:10AM -11.1340 -14.8197 243° Southwest  Level Estimated
10:11AM -11.1903 -14.9323 243° Southwest  Level Estimated
10:12AM -11.2466 -15.0450 243° Southwest  Level Estimated
10:13AM -11.3028 -15.1576 243° Southwest  Level Estimated
10:14AM -11.3590 -15.2703 243° Southwest  Level Estimated
10:15AM -11.4152 -15.3831 243° Southwest  Level Estimated
10:16AM -11.4713 -15.4959 243° Southwest  Level Estimated
10:17AM -11.5273 -15.6088 243° Southwest  Level Estimated
10:18AM -11.5833 -15.7216 243° Southwest  Level Estimated
10:19AM -11.6393 -15.8346 243° Southwest  Level Estimated
10:20AM -11.6952 -15.9476 243° Southwest  Level Estimated
10:21AM -11.7511 -16.0606 243° Southwest  Level Estimated
10:22AM -11.8070 -16.1737 243° Southwest  Level Estimated
10:23AM -11.8628 -16.2868 243° Southwest  Level Estimated
10:24AM -11.9185 -16.4000 243° Southwest  Level Estimated
10:25AM -11.9742 -16.5132 243° Southwest  Level Estimated
10:26AM -12.0299 -16.6264 243° Southwest  Level Estimated
10:27AM -12.0855 -16.7397 243° Southwest  Level Estimated
10:28AM -12.1410 -16.8531 243° Southwest  Level Estimated
10:29AM -12.1966 -16.9665 243° Southwest  Level Estimated
10:30AM -12.2520 -17.0799 243° Southwest  Level Estimated
10:31AM -12.3075 -17.1934 243° Southwest  Level Estimated
10:32AM -12.3628 -17.3070 243° Southwest  Level Estimated
10:33AM -12.4182 -17.4206 243° Southwest  Level Estimated
10:34AM -12.4735 -17.5342 244° Southwest  Level Estimated
10:35AM -12.5287 -17.6479 244° Southwest  Level Estimated
10:36AM -12.5839 -17.7616 244° Southwest  Level Estimated
10:37AM -12.6390 -17.8754 244° Southwest  Level Estimated
10:38AM -12.6941 -17.9893 244° Southwest  Level Estimated
10:39AM -12.7492 -18.1032 244° Southwest  Level Estimated
10:40AM -12.8042 -18.2171 244° Southwest  Level Estimated
10:41AM -12.8591 -18.3311 244° Southwest  Level Estimated
10:42AM -12.9140 -18.4451 244° Southwest  Level Estimated
10:43AM -12.9689 -18.5592 244° Southwest  Level Estimated
10:44AM -13.0237 -18.6733 244° Southwest  Level Estimated
10:45AM -13.0784 -18.7875 244° Southwest  Level Estimated
10:46AM -13.1331 -18.9018 244° Southwest  Level Estimated
10:47AM -13.1878 -19.0161 244° Southwest  Level Estimated
10:48AM -13.2424 -19.1304 244° Southwest  Level Estimated
10:49AM -13.2969 -19.2448 244° Southwest  Level Estimated
10:50AM -13.3514 -19.3592 244° Southwest  Level Estimated
10:51AM -13.4059 -19.4737 244° Southwest  Level Estimated
10:52AM -13.4603 -19.5883 244° Southwest  Level Estimated
10:53AM -13.5146 -19.7029 244° Southwest  Level Estimated
10:54AM -13.5689 -19.8175 244° Southwest  Level Estimated
10:55AM -13.6231 -19.9322 244° Southwest  Level Estimated
10:56AM -13.6773 -20.0470 244° Southwest  Level Estimated
10:57AM -13.7315 -20.1618 244° Southwest  Level Estimated
10:58AM -13.7855 -20.2766 244° Southwest  Level Estimated
10:59AM -13.8396 -20.3916 244° Southwest  Level Estimated
11:00AM -13.8935 -20.5065 244° Southwest  Level Estimated
11:01AM -13.9475 -20.6215 244° Southwest  Level Estimated
11:02AM -14.0013 -20.7366 244° Southwest  Level Estimated
11:03AM -14.0551 -20.8517 244° Southwest  Level Estimated
11:04AM -14.1089 -20.9669 244° Southwest  Level Estimated
11:05AM -14.1626 -21.0822 244° Southwest  Level Estimated
11:06AM -14.2162 -21.1975 244° Southwest  Level Estimated
11:07AM -14.2698 -21.3128 244° Southwest  Level Estimated
11:08AM -14.3234 -21.4282 244° Southwest  Level Estimated
11:09AM -14.3769 -21.5437 244° Southwest  Level Estimated
11:10AM -14.4303 -21.6592 244° Southwest  Level Estimated
11:11AM -14.4836 -21.7747 244° Southwest  Level Estimated
11:12AM -14.5370 -21.8904 245° Southwest  Level Estimated
11:13AM -14.5902 -22.0060 245° Southwest  Level Estimated
11:14AM -14.6434 -22.1218 245° Southwest  Level Estimated
11:15AM -14.6965 -22.2376 245° Southwest  Level Estimated
11:16AM -14.7496 -22.3534 245° Southwest  Level Estimated
11:17AM -14.8027 -22.4693 245° Southwest  Level Estimated
11:18AM -14.8556 -22.5853 245° Southwest  Level Estimated
11:19AM -14.9085 -22.7013 245° Southwest  Level Estimated
11:20AM -14.9614 -22.8174 245° Southwest  Level Estimated
11:21AM -15.0142 -22.9335 245° Southwest  Level Estimated
11:22AM -15.0669 -23.0497 245° Southwest  Level Estimated
11:23AM -15.1196 -23.1659 245° Southwest  Level Estimated
11:24AM -15.1722 -23.2822 245° Southwest  Level Estimated
11:25AM -15.2247 -23.3986 245° Southwest  Level Estimated
11:26AM -15.2772 -23.5150 245° Southwest  Level Estimated
11:27AM -15.3296 -23.6315 245° Southwest  Level Estimated
11:28AM -15.3820 -23.7480 245° Southwest  Level Estimated
11:29AM -15.4343 -23.8646 245° Southwest  Level Estimated
11:30AM -15.4866 -23.9813 245° Southwest  Level Estimated
11:31AM -15.5388 -24.0980 245° Southwest  Level Estimated
11:32AM -15.5909 -24.2147 245° Southwest  Level Estimated
11:33AM -15.6430 -24.3316 245° Southwest  Level Estimated
11:34AM -15.6950 -24.4485 245° Southwest  Level Estimated
11:35AM -15.7469 -24.5654 245° Southwest  Level Estimated
11:36AM -15.7988 -24.6824 245° Southwest  Level Estimated
11:37AM -15.8506 -24.7995 245° Southwest  Level Estimated
11:38AM -15.9024 -24.9166 245° Southwest  Level Estimated
11:39AM -15.9541 -25.0338 245° Southwest  Level Estimated
11:40AM -16.0057 -25.1511 245° Southwest  Level Estimated
11:41AM -16.0573 -25.2684 245° Southwest  Level Estimated
11:42AM -16.1088 -25.3857 245° Southwest  Level Estimated
11:43AM -16.1602 -25.5032 245° Southwest  Level Estimated
11:44AM -16.2116 -25.6207 246° West  Level Estimated
11:45AM -16.2629 -25.7382 246° West  Level Estimated
11:46AM -16.3141 -25.8558 246° West  Level Estimated
11:47AM -16.3653 -25.9735 246° West  Level Estimated
11:48AM -16.4164 -26.0912 246° West  Level Estimated
11:49AM -16.4675 -26.2090 246° West  Level Estimated
11:50AM -16.5184 -26.3269 246° West  Level Estimated
11:51AM -16.5694 -26.4448 246° West  Level Estimated
11:52AM -16.6202 -26.5628 246° West  Level Estimated
11:53AM -16.6710 -26.6809 246° West  Level Estimated
11:54AM -16.7217 -26.7990 246° West  Level Estimated
11:55AM -16.7724 -26.9172 246° West  Level Estimated
11:56AM -16.8230 -27.0354 246° West  Level Estimated
11:57AM -16.8735 -27.1537 246° West  Level Estimated
11:58AM -16.9239 -27.2721 246° West  Level Estimated
11:59AM -16.9743 -27.3905 246° West  Level Estimated
12:00PM -17.0246 -27.5090 246° West  Level Estimated
12:01PM -17.0748 -27.6275 246° West  Level Estimated
12:02PM -17.1250 -27.7461 246° West  Level Estimated
12:03PM -17.1751 -27.8648 246° West  Level Estimated
12:04PM -17.2251 -27.9836 246° West  Level Estimated
12:05PM -17.2751 -28.1024 246° West  Level Estimated
12:06PM -17.3250 -28.2213 246° West  Level Estimated
12:07PM -17.3748 -28.3402 246° West  Level Estimated
12:08PM -17.4246 -28.4592 246° West  Level Estimated
12:09PM -17.4742 -28.5783 246° West  Level Estimated
12:10PM -17.5238 -28.6974 246° West  Level Estimated
12:11PM -17.5734 -28.8166 246° West  Level Estimated
12:12PM -17.6229 -28.9359 246° West  Level Estimated
12:13PM -17.6723 -29.0552 247° West  Level Estimated
12:14PM -17.7216 -29.1746 247° West  Level Estimated
12:15PM -17.7708 -29.2941 247° West  Level Estimated
12:16PM -17.8200 -29.4136 247° West  Level Estimated
12:17PM -17.8691 -29.5332 247° West  Level Estimated
12:18PM -17.9182 -29.6528 247° West  Level Estimated
12:19PM -17.9671 -29.7726 247° West  Level Estimated
12:20PM -18.0160 -29.8923 247° West  Level Estimated
12:21PM -18.0648 -30.0122 247° West  Level Estimated
12:22PM -18.1136 -30.1321 247° West  Level Estimated
12:23PM -18.1623 -30.2521 247° West  Level Estimated
12:24PM -18.2108 -30.3722 247° West  Level Estimated
12:25PM -18.2594 -30.4923 247° West  Level Estimated
12:26PM -18.3078 -30.6125 247° West  Level Estimated
12:27PM -18.3562 -30.7328 247° West  Level Estimated
12:28PM -18.4045 -30.8531 247° West  Level Estimated
12:29PM -18.4527 -30.9735 247° West  Level Estimated
12:30PM -18.5008 -31.0939 247° West  Level Estimated
12:31PM -18.5489 -31.2145 247° West  Level Estimated
12:32PM -18.5969 -31.3351 247° West  Level Estimated
12:33PM -18.6448 -31.4557 247° West  Level Estimated
12:34PM -18.6926 -31.5765 247° West  Level Estimated
12:35PM -18.7404 -31.6973 247° West  Level Estimated
12:36PM -18.7880 -31.8181 247° West  Level Estimated
12:37PM -18.8356 -31.9391 247° West  Level Estimated
12:38PM -18.8832 -32.0601 247° West  Level Estimated
12:39PM -18.9306 -32.1812 247° West  Level Estimated
12:40PM -18.9780 -32.3023 248° West  Level Estimated
12:41PM -19.0253 -32.4235 248° West  Level Estimated
12:41PM -19.6470 -37.1740 248° West 452 520 38,000  Level FlightAware
12:42PM -19.0725 -32.5448 248° West  Level Estimated
12:42PM -19.6760 -37.3230 258° West 455 524 38,000  Level FlightAware
12:43PM -19.6920 -37.3960 257° West 455 524 38,000  Level FlightAware
12:43PM -19.7080 -37.4700 257° West 455 524 38,000  Level FlightAware
12:44PM -19.7350 -37.6120 259° West 450 518 38,000  Level FlightAware
12:45PM -19.7580 -37.7270 258° West 450 518 38,000  Level FlightAware
12:45PM -19.7720 -37.8010 259° West 450 518 38,000  Level FlightAware
12:46PM -19.7950 -37.9130 258° West 450 518 38,000  Level FlightAware
12:47PM -19.8110 -37.9970 259° West 449 517 38,000  Level FlightAware
12:48PM -19.8310 -38.0940 258° West 447 514 38,000  Level FlightAware
12:49PM -19.8490 -38.1850 258° West 447 514 38,000  Level FlightAware
12:49PM -19.8760 -38.3250 258° West 448 516 38,000  Level FlightAware
12:50PM -19.8990 -38.4400 258° West 447 514 38,000  Level FlightAware
12:51PM -19.9160 -38.5270 258° West 447 514 38,000  Level FlightAware
12:51PM -19.9290 -38.5960 259° West 447 514 38,000  Level FlightAware
12:52PM -19.9540 -38.7220 258° West 446 513 38,000  Level FlightAware
12:53PM -19.9750 -38.8310 258° West 444 511 38,000  Level FlightAware
12:54PM -19.9910 -38.9160 259° West 444 511 38,000  Level FlightAware
12:54PM -20.0070 -38.9980 258° West 445 512 38,000  Level FlightAware
12:55PM -20.0280 -39.1040 258° West 446 513 38,000  Level FlightAware
12:56PM -20.0440 -39.1890 259° West 444 511 38,000  Level FlightAware
12:56PM -20.0570 -39.2550 258° West 444 511 38,000  Level FlightAware
12:57PM -20.0740 -39.3480 259° West 444 511 38,000  Level FlightAware
12:58PM -20.0920 -39.4430 259° West 444 511 38,000  Level FlightAware
12:58PM -20.1050 -39.5120 259° West 444 511 38,000  Level FlightAware
12:59PM -20.1270 -39.6270 258° West 444 511 38,000  Level FlightAware
01:00PM -20.1440 -39.7190 259° West 446 513 38,000  Level FlightAware
01:01PM -20.1560 -39.7780 258° West 447 514 38,000  Level FlightAware
01:02PM -20.1770 -39.8900 259° West 446 513 38,000  Level FlightAware
01:03PM -20.2050 -40.0400 259° West 442 509 38,000  Level FlightAware
01:03PM -20.2200 -40.1240 259° West 441 507 38,000  Level FlightAware
01:04PM -20.2300 -40.1760 258° West 442 509 38,000  Level FlightAware
01:05PM -20.2720 -40.2930 249° West 452 520 38,000  Level FlightAware
01:05PM -20.3460 -40.3510 216° Southwest 460 529 38,000  Level FlightAware
01:06PM -20.3980 -40.3870 213° Southwest 459 528 38,000  Level FlightAware
01:07PM -20.4860 -40.4480 213° Southwest 459 528 38,000  Level FlightAware
01:08PM -20.6040 -40.5310 213° Southwest 461 531 38,000  Level FlightAware
01:08PM -20.6900 -40.5920 214° Southwest 461 531 38,000  Level FlightAware
01:09PM -20.7520 -40.6360 214° Southwest 461 531 38,000  Level FlightAware
01:10PM -20.8400 -40.6980 213° Southwest 462 532 38,000  Level FlightAware
01:10PM -20.9210 -40.7550 213° Southwest 465 535 38,000  Level FlightAware
01:11PM -20.9870 -40.8010 213° Southwest 465 535 38,000  Level FlightAware
01:12PM -21.0710 -40.8610 214° Southwest 464 534 38,000  Level FlightAware
01:12PM -21.1330 -40.9050 214° Southwest 463 533 38,000  Level FlightAware
01:13PM -21.2820 -41.0110 214° Southwest 463 533 38,000  Level FlightAware
01:14PM -21.3540 -41.0620 213° Southwest 462 532 38,000  Level FlightAware
01:15PM -21.4310 -41.1160 213° Southwest 462 532 38,000  Level FlightAware
01:15PM -21.4930 -41.1610 214° Southwest 461 531 38,000  Level FlightAware
01:16PM -21.5860 -41.2270 213° Southwest 462 532 38,000  Level FlightAware
01:17PM -21.6580 -41.2780 213° Southwest 463 533 38,000  Level FlightAware
01:17PM -21.7220 -41.3380 221° Southwest 449 517 38,000  Level FlightAware
01:18PM -21.7850 -41.4140 228° Southwest 448 516 38,000  Level FlightAware
01:19PM -21.8390 -41.4810 229° Southwest 448 516 38,000  Level FlightAware
01:20PM -21.8940 -41.5500 229° Southwest 448 516 38,000  Level FlightAware
01:20PM -21.9530 -41.6220 229° Southwest 447 514 38,000  Level FlightAware
01:21PM -22.0090 -41.6910 229° Southwest 446 513 38,000  Level FlightAware
01:22PM -22.0690 -41.7660 229° Southwest 444 511 38,000  Level FlightAware
01:22PM -22.1240 -41.8340 229° Southwest 443 510 38,000  Level FlightAware
01:23PM -22.1830 -41.9070 229° Southwest 445 512 38,000  Level FlightAware
01:24PM -22.2370 -41.9750 229° Southwest 444 511 38,000  Level FlightAware
01:24PM -22.2910 -42.0410 229° Southwest 443 510 38,000  Level FlightAware
01:25PM -22.3530 -42.1180 229° Southwest 444 511 38,000  Level FlightAware
01:26PM -22.4060 -42.1850 229° Southwest 443 510 38,000  Level FlightAware
01:27PM -22.4660 -42.2600 229° Southwest 443 510 38,000  Level FlightAware
01:27PM -22.5200 -42.3270 229° Southwest 444 511 38,000  Level FlightAware
01:28PM -22.5720 -42.3930 230° Southwest 445 512 38,000 -1,140 Level FlightAware
01:29PM -22.6350 -42.4720 229° Southwest 443 510 36,400 -2,220 Descending FlightAware
01:29PM -22.6850 -42.5400 231° Southwest 431 496 34,900 -1,740 Descending FlightAware
01:30PM -22.7050 -42.6260 256° West 381 438 34,000 -1,440 Descending FlightAware
01:31PM -22.7090 -42.6980 267° West 347 399 32,900 -2,580 Descending FlightAware
01:31PM -22.7110 -42.7660 268° West 333 383 30,600 -3,540 Descending FlightAware
01:32PM -22.7140 -42.8240 267° West 323 372 28,500 -3,000 Descending FlightAware
01:33PM -22.7070 -42.8890 277° West 323 372 26,900 -1,560 Descending FlightAware
01:33PM -22.6900 -42.9560 285° West 314 361 26,300 -900 Descending FlightAware
01:34PM -22.6760 -43.0110 285° West 308 354 25,700 -1,320 Descending FlightAware
01:35PM -22.6610 -43.0690 286° West 302 348 24,700 -1,500 Descending FlightAware
01:35PM -22.6450 -43.1340 285° West 301 346 23,600 -1,500 Descending FlightAware
01:36PM -22.6280 -43.2000 286° West 297 342 22,500 -1,500 Descending FlightAware
01:37PM -22.6130 -43.2570 286° West 296 341 21,500 -2,100 Descending FlightAware
01:39PM -22.8089 -43.2436 176° South  Level Estimated
01:40PM -22.8089 -43.2436 137° Southeast  Level Estimated
01:40PM -22.6780 -43.5130 137° Southeast 259 298 13,800  Level FlightAware
01:41PM -22.7010 -43.5610 243° Southwest 255 293 12,100 -1,800 Descending FlightAware
01:42PM -22.7260 -43.6130 242° Southwest 255 293 11,100 -600 Descending FlightAware
01:43PM -22.7480 -43.6620 244° Southwest 255 293 11,100  Level FlightAware
01:43PM -22.7670 -43.7000 242° Southwest 255 293 11,100 -2,460 Level FlightAware
01:45PM -22.8520 -43.5810 128° Southeast 228 262 6,000 -2,940 Descending FlightAware
01:45PM -22.8630 -43.5640 125° Southeast 220 253 6,000 -180 Level FlightAware
01:46PM -22.8730 -43.5370 112° Southeast 218 251 5,900 -840 Descending FlightAware
01:46PM -22.8680 -43.5110 78° East 217 250 5,300 -1,320 Descending FlightAware
01:46PM -22.8590 -43.4790 73° East 212 244 4,700 -1,200 Descending FlightAware
01:47PM -22.8530 -43.4540 75° East 214 246 4,200 -1,200 Descending FlightAware
01:47PM -22.8490 -43.4400 73° East 210 242 3,900 -600 Descending FlightAware
01:48PM -22.8420 -43.4100 76° East 204 235 3,700 -1,140 Descending FlightAware
01:48PM -22.8360 -43.3860 75° East 185 213 2,800 -1,500 Descending FlightAware
01:49PM -22.8260 -43.3500 73° East 172 198 2,100 -1,020 Descending FlightAware
01:49PM -22.8210 -43.3310 74° East 151 174 1,700 -900 Descending FlightAware
01:49PM -22.8190 -43.3210 78° East 149 171 1,500 -960 Descending FlightAware
01:50PM -22.8140 -43.3010 75° East 149 171 1,000 -1,020 Descending FlightAware
01:50PM -22.8090 -43.2830 73° East 151 174 600 -480 Descending FlightAware
01:51PM -22.8040 -43.2620 76° East 151 174 600  Level FlightAware
01:53PM -22.8089 -43.2436 106° East  Level Estimated
01:54PM -22.8089 -43.2436 137° Southeast  Level Estimated
01:55PM -22.8089 -43.2436 137° Southeast  Level Estimated
01:56PM -22.8089 -43.2436 137° Southeast  Level Estimated
01:57PM -22.8089 -43.2436 137° Southeast  Level Estimated